Time;durP1;ratioP1;P1;durP2;ratioP2;P2;SDS_P1;SDS_P2;PMS_P1;PMS_P2;Temp;Humidity;BMP_temperature;BMP_pressure;BME280_temperature;BME280_humidity;BME280_pressure;Samples;Min_cycle;Max_cycle;Signal;HPM_P1;HPM_P2
2021/05/10 00:03:59;;;;;;;1999.90;999.90;;;;;;;20.39;46.09;100176.03;15859357;28;20653;-58
2021/05/10 00:11:34;;;;;;;1999.90;999.90;;;;;;;19.87;47.41;100175.84;15860486;28;20048;-62
2021/05/10 00:19:05;;;;;;;1999.90;999.90;;;;;;;19.60;47.99;100176.34;15860339;28;20500;-60
2021/05/10 00:26:39;;;;;;;1999.90;999.90;;;;;;;19.47;48.17;100180.75;15859577;28;20500;-61
2021/05/10 00:34:12;;;;;;;1999.90;999.90;;;;;;;19.41;48.24;100170.28;15857755;28;20044;-61
2021/05/10 00:41:45;;;;;;;1999.90;999.90;;;;;;;18.79;49.49;100173.50;15858740;28;20074;-62
2021/05/10 00:49:17;;;;;;;1999.90;999.90;;;;;;;18.66;49.76;100173.09;15858277;28;20047;-58
2021/05/10 00:56:49;;;;;;;1999.90;999.90;;;;;;;18.85;49.76;100175.53;15839700;28;20368;-61
2021/05/10 01:04:21;;;;;;;1999.90;999.90;;;;;;;18.68;51.06;100173.50;15859123;28;20048;-58
2021/05/10 01:11:53;;;;;;;1999.90;999.90;;;;;;;18.59;50.50;100171.03;15858091;28;20437;-60
2021/05/10 01:19:26;;;;;;;1999.90;999.90;;;;;;;18.38;51.88;100163.31;15856695;28;20058;-56
2021/05/10 01:26:58;;;;;;;1999.90;999.90;;;;;;;18.03;52.47;100168.81;15863950;28;20476;-57
2021/05/10 01:34:30;;;;;;;1999.90;999.90;;;;;;;17.75;51.66;100159.03;15852110;28;20051;-57
2021/05/10 01:42:02;;;;;;;1999.90;999.90;;;;;;;17.80;51.23;100161.47;15869596;28;20066;-60
2021/05/10 01:49:34;;;;;;;1999.90;999.90;;;;;;;17.83;50.71;100148.59;15867271;28;20127;-59
2021/05/10 01:57:07;;;;;;;1999.90;999.90;;;;;;;17.79;50.71;100148.56;15869290;28;20051;-54
2021/05/10 02:05:14;;;;;;;1999.90;999.90;;;;;;;17.71;50.99;100146.91;15866684;28;20119;-59
2021/05/10 02:12:54;;;;;;;1999.90;999.90;;;;;;;17.55;51.13;100150.03;15868331;28;20393;-54
2021/05/10 02:20:27;;;;;;;1999.90;999.90;;;;;;;17.38;51.31;100141.44;15849711;28;20162;-56
2021/05/10 02:27:59;;;;;;;;;;;;;;;17.46;50.73;100149.56;15868071;28;20123;-61
2021/05/10 02:35:31;;;;;;;1999.90;999.90;;;;;;;17.42;51.33;100156.41;15865400;28;20017;-60
2021/05/10 02:43:04;;;;;;;1999.90;999.90;;;;;;;17.23;51.20;100147.00;15865852;27;20124;-57
2021/05/10 02:50:36;;;;;;;1999.90;999.90;;;;;;;17.27;51.09;100149.81;15847252;28;20067;-60
2021/05/10 02:58:08;;;;;;;1999.90;999.90;;;;;;;17.05;51.50;100162.16;15864163;28;20073;-60
2021/05/10 03:05:41;;;;;;;1999.90;999.90;;;;;;;17.05;51.44;100165.78;15865162;28;20039;-61
2021/05/10 03:13:14;;;;;;;1999.90;999.90;;;;;;;16.91;51.64;100160.03;15864605;27;20120;-64
2021/05/10 03:20:46;;;;;;;1999.90;999.90;;;;;;;16.99;52.71;100170.16;15862610;28;20043;-60
2021/05/10 03:28:18;;;;;;;1999.90;999.90;;;;;;;16.56;52.16;100161.25;15863719;28;20073;-61
2021/05/10 03:35:50;;;;;;;1999.90;999.90;;;;;;;16.64;51.75;100162.16;15861436;28;20381;-57
2021/05/10 03:43:22;;;;;;;1999.90;999.90;;;;;;;16.26;53.04;100163.38;15860737;28;20082;-61
2021/05/10 03:50:54;;;;;;;1999.90;999.90;;;;;;;16.52;52.22;100173.69;15842541;28;20071;-60
2021/05/10 03:58:28;;;;;;;1999.90;999.90;;;;;;;16.55;51.91;100192.63;15860062;28;20104;-62
2021/05/10 04:14:00;;;;;;;1999.90;999.90;;;;;;;16.47;52.98;100193.78;15823575;28;20043;-60
2021/05/10 04:21:32;;;;;;;1999.90;999.90;;;;;;;16.35;53.90;100172.31;15858926;28;20138;-61
2021/05/10 04:29:04;;;;;;;1999.90;999.90;;;;;;;16.65;52.81;100189.94;15858733;28;20046;-59
2021/05/10 04:36:36;;;;;;;1999.90;999.90;;;;;;;16.96;52.38;100165.28;15858477;28;20137;-59
2021/05/10 04:44:08;;;;;;;1999.90;999.90;;;;;;;17.29;51.94;100158.69;15859301;28;20044;-61
2021/05/10 04:51:40;;;;;;;1999.90;999.90;;;;;;;17.53;51.90;100166.53;15840870;28;20086;-61
2021/05/10 04:59:12;;;;;;;1999.90;999.90;;;;;;;17.47;52.65;100159.63;15841050;28;20047;-62
2021/05/10 05:06:44;;;;;;;1999.90;999.90;;;;;;;17.56;51.92;100160.09;15857816;28;20617;-61
2021/05/10 05:14:17;;;;;;;1999.90;999.90;;;;;;;18.15;50.92;100132.59;15873707;22;20424;-54
2021/05/10 05:21:50;;;;;;;1999.90;999.90;;;;;;;18.58;49.06;100146.81;15795041;28;20044;-56
2021/05/10 05:29:23;;;;;;;1999.90;999.90;;;;;;;19.45;46.68;100148.44;15844396;28;20046;-56
2021/05/10 05:36:54;;;;;;;1999.90;999.90;;;;;;;19.54;46.46;100148.81;15858235;28;20070;-53
2021/05/10 05:44:32;;;;;;;1999.90;999.90;;;;;;;20.35;44.27;100147.72;15838901;28;20500;-56
2021/05/10 05:52:05;;;;;;;1999.90;999.90;;;;;;;21.05;42.73;100161.88;15839562;28;20055;-54
2021/05/10 05:59:37;;;;;;;1999.90;999.90;;;;;;;21.19;41.77;100172.28;15842159;28;20089;-57
2021/05/10 06:07:09;;;;;;;1999.90;999.90;;;;;;;22.36;39.71;100173.06;15859124;28;20048;-55
2021/05/10 06:14:44;;;;;;;1999.90;999.90;;;;;;;23.20;37.95;100175.06;15851652;28;20047;-57
2021/05/10 06:22:16;;;;;;;1999.90;999.90;;;;;;;23.47;37.47;100194.94;15861548;28;20122;-56
2021/05/10 06:29:49;;;;;;;1999.90;999.90;;;;;;;23.05;38.78;100180.19;15872211;28;20035;-57
2021/05/10 06:37:20;;;;;;;1999.90;999.90;;;;;;;23.79;37.41;100180.13;15869340;28;20052;-55
2021/05/10 06:44:54;;;;;;;1999.90;999.90;;;;;;;23.38;38.54;100174.75;15850509;28;20047;-55
2021/05/10 06:52:27;;;;;;;1999.90;999.90;;;;;;;24.27;36.80;100167.34;15867931;28;20503;-57
2021/05/10 07:00:00;;;;;;;1999.90;999.90;;;;;;;25.15;34.68;100178.00;15849352;28;20067;-57
2021/05/10 07:07:32;;;;;;;1999.90;999.90;;;;;;;25.85;34.52;100183.13;15848166;28;20043;-55
2021/05/10 07:15:05;;;;;;;1999.90;999.90;;;;;;;25.58;34.51;100181.34;15865667;28;20397;-55
2021/05/10 07:22:37;;;;;;;1999.90;999.90;;;;;;;26.52;34.66;100197.50;15846389;28;20077;-56
2021/05/10 07:30:10;;;;;;;1999.90;999.90;;;;;;;27.49;31.98;100204.59;15846781;28;20043;-53
2021/05/10 07:37:42;;;;;;;1999.90;999.90;;;;;;;28.06;31.10;100201.81;15845591;28;20130;-56
2021/05/10 07:45:14;;;;;;;1999.90;999.90;;;;;;;28.78;29.81;100188.44;15845569;28;20539;-55
2021/05/10 07:52:46;;;;;;;1999.90;999.90;;;;;;;29.89;29.26;100196.88;15863354;28;20063;-55
2021/05/10 08:00:23;;;;;;;1999.90;999.90;;;;;;;29.76;29.30;100188.44;15845500;28;20036;-52
2021/05/10 08:07:55;;;;;;;1999.90;999.90;;;;;;;29.38;31.05;100165.03;15843795;28;20156;-56
2021/05/10 08:15:27;;;;;;;1999.90;999.90;;;;;;;27.31;32.40;100178.66;15843745;28;20046;-54
2021/05/10 08:22:59;;;;;;;1999.90;999.90;;;;;;;29.68;28.98;100190.00;15861842;28;20373;-58
2021/05/10 08:30:32;;;;;;;1999.90;999.90;;;;;;;31.24;27.12;100190.53;15843788;28;20138;-55
2021/05/10 08:38:06;;;;;;;1999.90;999.90;;;;;;;30.33;28.46;100176.44;15842092;28;20067;-58
2021/05/10 08:45:40;;;;;;;1999.90;999.90;;;;;;;30.82;27.31;100167.50;15842136;28;20116;-53
2021/05/10 08:53:12;;;;;;;1999.90;999.90;;;;;;;31.38;28.18;100179.59;15842121;28;20040;-56
2021/05/10 09:00:52;;;;;;;1999.90;999.90;;;;;;;31.17;28.52;100172.81;15825434;28;20047;-55
2021/05/10 09:08:23;;;;;;;1999.90;999.90;;;;;;;30.42;30.02;100168.56;15859957;28;20044;-56
2021/05/10 09:16:01;;;;;;;1999.90;999.90;;;;;;;32.31;28.36;100170.53;15841213;28;20044;-58
2021/05/10 09:23:33;;;;;;;1999.90;999.90;;;;;;;31.22;29.46;100181.59;15840079;28;20135;-54
2021/05/10 09:31:07;;;;;;;1999.90;999.90;;;;;;;30.90;30.06;100176.59;15824314;28;20164;-54
2021/05/10 09:38:39;;;;;;;1999.90;999.90;;;;;;;30.76;28.57;100157.97;15840820;28;20048;-61
2021/05/10 09:46:13;;;;;;;1999.90;999.90;;;;;;;30.98;29.36;100161.38;15826217;28;20047;-60
2021/05/10 09:53:48;;;;;;;1999.90;999.90;;;;;;;31.69;29.94;100170.56;15870767;28;20120;-61
2021/05/10 10:01:22;;;;;;;1999.90;999.90;;;;;;;32.70;27.76;100184.84;15851491;28;20073;-58
2021/05/10 10:08:53;;;;;;;1999.90;999.90;;;;;;;32.17;27.34;100163.41;15869219;28;20055;-61
2021/05/10 10:16:29;;;;;;;1999.90;999.90;;;;;;;33.07;28.43;100173.69;15834374;28;20243;-60
2021/05/10 10:24:02;;;;;;;1999.90;999.90;;;;;;;33.93;25.35;100166.47;15849866;28;20050;-60
2021/05/10 10:31:38;;;;;;;1999.90;999.90;;;;;;;32.68;25.13;100173.81;15850711;28;20450;-60
2021/05/10 10:39:12;;;;;;;1999.90;999.90;;;;;;;32.99;25.81;100175.38;15849958;28;20046;-61
2021/05/10 10:46:50;;;;;;;1999.90;999.90;;;;;;;35.62;23.42;100174.50;15867111;28;20120;-61
2021/05/10 10:54:23;;;;;;;1999.90;999.90;;;;;;;33.82;24.75;100151.84;15848960;28;20479;-61
2021/05/10 11:01:57;;;;;;;1999.90;999.90;;;;;;;34.57;24.44;100150.81;15831250;28;20385;-61
2021/05/10 11:09:48;;;;;;;1999.90;999.90;;;;;;;35.50;23.84;100154.13;15847576;28;20044;-59
2021/05/10 11:17:53;;;;;;;1999.90;999.90;;;;;;;34.85;23.40;100145.25;15878320;22;20055;-55
2021/05/10 11:25:38;;;;;;;1999.90;999.90;;;;;;;35.58;22.81;100145.75;15845120;28;20039;-59
2021/05/10 11:33:11;;;;;;;1999.90;999.90;;;;;;;35.55;23.97;100126.50;15864537;28;20071;-59
2021/05/10 11:40:46;;;;;;;1999.90;999.90;;;;;;;35.14;26.27;100123.09;15861724;28;20066;-58
2021/05/10 11:48:40;;;;;;;1999.90;999.90;;;;;;;34.40;25.04;100115.94;15862294;28;20051;-57
2021/05/10 11:56:11;;;;;;;1999.90;999.90;;;;;;;35.40;24.61;100135.38;15843635;28;20468;-55
2021/05/10 12:03:44;;;;;;;1999.90;999.90;;;;;;;35.27;22.46;100123.41;15842880;28;20050;-59
2021/05/10 12:11:21;;;;;;;1999.90;999.90;;;;;;;36.55;23.22;100119.34;15860659;28;20084;-59
2021/05/10 12:18:57;;;;;;;1999.90;999.90;;;;;;;37.41;20.20;100117.38;15859173;28;20629;-59
2021/05/10 12:26:28;;;;;;;1999.90;999.90;;;;;;;36.33;22.87;100117.19;15858661;28;20054;-61
2021/05/10 12:34:02;;;;;;;1999.90;999.90;;;;;;;37.93;20.26;100127.47;15860218;28;20071;-61
2021/05/10 12:41:34;;;;;;;1999.90;999.90;;;;;;;39.32;19.97;100143.06;15858466;28;20146;-61
2021/05/10 12:49:07;;;;;;;1999.90;999.90;;;;;;;38.83;20.10;100153.88;15858976;28;20084;-60
2021/05/10 12:56:42;;;;;;;1999.90;999.90;;;;;;;37.93;20.67;100159.50;15851564;28;20079;-60
2021/05/10 13:04:20;;;;;;;1999.90;999.90;;;;;;;40.49;18.59;100164.09;15848896;28;20043;-59
2021/05/10 13:11:58;;;;;;;1999.90;999.90;;;;;;;41.77;17.93;100166.00;15794545;28;20101;-57
2021/05/10 13:19:48;;;;;;;1999.90;999.90;;;;;;;40.87;19.06;100176.50;15797627;28;20530;-58
2021/05/10 13:30:55;;;;;;;1999.90;999.90;;;;;;;34.56;25.15;100171.63;15790290;28;20135;-60
2021/05/10 13:35:38;;;;;;;1999.90;999.90;;;;;;;33.77;26.27;100167.84;15807358;28;20059;-57
2021/05/10 13:43:17;;;;;;;1999.90;999.90;;;;;;;33.71;27.73;100175.66;15805647;28;20052;-59
2021/05/10 13:50:50;;;;;;;1999.90;999.90;;;;;;;33.26;27.81;100162.66;15805220;28;20050;-57
2021/05/10 13:58:21;;;;;;;1999.90;999.90;;;;;;;33.60;27.85;100158.16;15807566;28;20040;-58
2021/05/10 14:05:54;;;;;;;1999.90;999.90;;;;;;;33.22;28.00;100162.06;15804166;28;20135;-59
2021/05/10 14:13:25;;;;;;;1999.90;999.90;;;;;;;33.12;29.11;100161.41;15804359;28;20062;-59
2021/05/10 14:28:49;;;;;;;1999.90;999.90;;;;;;;32.96;28.59;100196.63;15804319;28;20042;-61
2021/05/10 14:36:21;;;;;;;1999.90;999.90;;;;;;;32.81;29.05;100195.81;15801988;28;20048;-60
2021/05/10 14:43:53;;;;;;;1999.90;999.90;;;;;;;32.68;29.85;100190.34;15803987;28;20067;-61
2021/05/10 14:51:25;;;;;;;1999.90;999.90;;;;;;;32.28;27.99;100188.00;15828082;28;20044;-59
2021/05/10 14:58:57;;;;;;;1999.90;999.90;;;;;;;32.65;27.56;100171.13;15858980;28;20044;-59
2021/05/10 15:06:30;;;;;;;1999.90;999.90;;;;;;;32.41;27.15;100169.16;15832341;28;20059;-55
2021/05/10 15:14:01;;;;;;;1999.90;999.90;;;;;;;32.11;26.85;100179.06;15834042;28;20086;-57
2021/05/10 15:21:33;;;;;;;1999.90;999.90;;;;;;;32.63;27.86;100183.19;15865739;28;20077;-61
2021/05/10 15:29:05;;;;;;;1999.90;999.90;;;;;;;32.24;28.76;100178.75;15864790;28;20040;-61
2021/05/10 15:36:38;;;;;;;;;;;;;;;32.35;30.56;100193.44;15863505;28;20118;-62
2021/05/10 15:44:10;;;;;;;1999.90;999.90;;;;;;;32.39;29.40;100200.59;15862696;28;20239;-58
2021/05/10 15:51:43;;;;;;;1999.90;999.90;;;;;;;32.25;32.08;100204.25;15863699;28;20410;-60
2021/05/10 15:59:15;;;;;;;1999.90;999.90;;;;;;;31.95;28.83;100219.91;15862208;28;20047;-60
2021/05/10 16:06:47;;;;;;;;;;;;;;;32.10;28.53;100224.44;15860953;28;20036;-60
2021/05/10 16:14:19;;;;;;;1999.90;999.90;;;;;;;31.70;28.01;100229.84;15861023;28;20010;-60
2021/05/10 16:21:51;;;;;;;1999.90;999.90;;;;;;;31.53;27.85;100238.91;15859575;28;20126;-57
2021/05/10 16:29:23;;;;;;;1999.90;999.90;;;;;;;31.68;30.36;100244.75;15858876;28;20071;-61
2021/05/10 16:36:56;;;;;;;1999.90;999.90;;;;;;;31.58;30.87;100241.13;15841760;28;20579;-61
2021/05/10 16:44:27;;;;;;;1999.90;999.90;;;;;;;31.43;29.94;100254.66;15859456;28;20049;-59
2021/05/10 16:51:59;;;;;;;1999.90;999.90;;;;;;;31.49;30.70;100272.91;15859597;28;20407;-61
2021/05/10 16:59:31;;;;;;;1999.90;999.90;;;;;;;31.17;30.31;100265.81;15858131;28;20058;-58
2021/05/10 17:07:04;;;;;;;1999.90;999.90;;;;;;;30.68;30.44;100269.00;15857234;28;20477;-56
2021/05/10 17:14:36;;;;;;;1999.90;999.90;;;;;;;30.46;30.12;100286.44;15848871;28;20067;-61
2021/05/10 17:22:08;;;;;;;1999.90;999.90;;;;;;;30.50;31.71;100292.81;15840972;28;20043;-61
2021/05/10 17:29:41;;;;;;;1999.90;999.90;;;;;;;30.27;32.09;100300.03;15855926;28;20111;-61
2021/05/10 17:37:13;;;;;;;1999.90;999.90;;;;;;;29.90;33.69;100308.56;15817059;28;20048;-61
2021/05/10 17:44:45;;;;;;;1999.90;999.90;;;;;;;29.45;34.57;100311.28;15834215;28;20121;-61
2021/05/10 17:52:18;;;;;;;1999.90;999.90;;;;;;;29.13;35.76;100315.47;15846522;28;20556;-62
2021/05/10 17:59:49;;;;;;;1999.90;999.90;;;;;;;28.86;35.76;100316.06;15847551;28;20401;-62
2021/05/10 18:07:22;;;;;;;1999.90;999.90;;;;;;;28.37;36.28;100331.81;15847889;28;20043;-61
2021/05/10 18:14:55;;;;;;;1999.90;999.90;;;;;;;28.26;35.91;100334.25;15847801;28;20226;-63
2021/05/10 18:22:27;;;;;;;1999.90;999.90;;;;;;;27.96;36.21;100332.84;15865877;28;20039;-61
2021/05/10 18:29:59;;;;;;;1999.90;999.90;;;;;;;27.56;37.04;100321.84;15865369;28;20055;-65
2021/05/10 18:37:38;;;;;;;1999.90;999.90;;;;;;;27.19;37.90;100334.09;15865608;28;20204;-62
2021/05/10 18:45:12;;;;;;;1999.90;999.90;;;;;;;27.27;37.62;100333.41;15867048;28;20297;-62
2021/05/10 18:52:45;;;;;;;1999.90;999.90;;;;;;;26.97;39.73;100342.50;15865725;28;20048;-63
2021/05/10 19:00:18;;;;;;;1999.90;999.90;;;;;;;26.75;38.28;100353.78;15862878;28;20071;-62
2021/05/10 19:07:50;;;;;;;1999.90;999.90;;;;;;;26.51;40.92;100349.59;15864595;28;20043;-62
2021/05/10 19:15:22;;;;;;;;;;;;;;;26.34;40.72;100357.34;15858249;28;20123;-63
2021/05/10 19:22:58;;;;;;;1999.90;999.90;;;;;;;25.94;40.49;100369.03;15837352;28;19985;-63
2021/05/10 19:30:30;;;;;;;1999.90;999.90;;;;;;;25.68;41.62;100368.00;15844629;27;20047;-62
2021/05/10 19:38:03;;;;;;;1999.90;999.90;;;;;;;25.46;42.99;100370.59;15863046;28;20044;-61
2021/05/10 19:45:37;;;;;;;1999.90;999.90;;;;;;;25.21;42.90;100379.69;15862918;27;20139;-63
2021/05/10 20:01:03;;;;;;;1999.90;999.90;;;;;;;24.51;45.79;100357.09;15861235;28;20075;-63
2021/05/10 20:08:36;;;;;;;1999.90;999.90;;;;;;;24.36;44.88;100339.44;15861083;28;20048;-62
2021/05/10 20:16:07;;;;;;;1999.90;999.90;;;;;;;24.13;45.66;100339.44;15856535;28;20054;-62
2021/05/10 20:23:40;;;;;;;1999.90;999.90;;;;;;;23.95;45.19;100341.81;15859084;28;20143;-64
2021/05/10 20:31:11;;;;;;;1999.90;999.90;;;;;;;23.56;47.84;100337.56;15842008;28;20495;-62
2021/05/10 20:38:44;;;;;;;1999.90;999.90;;;;;;;23.30;48.31;100342.00;15860525;27;20082;-64
2021/05/10 20:46:15;;;;;;;1999.90;999.90;;;;;;;23.15;48.63;100352.00;15859225;28;20453;-63
2021/05/10 20:53:48;;;;;;;1999.90;999.90;;;;;;;22.87;50.36;100356.81;15859963;28;20520;-61
2021/05/10 21:01:20;;;;;;;1999.90;999.90;;;;;;;22.64;50.76;100356.69;15856915;28;20249;-60
2021/05/10 21:08:52;;;;;;;1999.90;999.90;;;;;;;22.39;51.51;100345.56;15813059;28;20059;-60
2021/05/10 21:16:24;;;;;;;1999.90;999.90;;;;;;;22.08;51.94;100342.63;15857623;28;20056;-61
2021/05/10 21:23:56;;;;;;;1999.90;999.90;;;;;;;21.86;52.32;100335.53;15854670;28;20297;-62
2021/05/10 21:31:28;;;;;;;1999.90;999.90;;;;;;;21.67;52.45;100342.56;15856737;28;20081;-62
2021/05/10 21:39:03;;;;;;;1999.90;999.90;;;;;;;21.47;53.40;100350.06;15857036;28;20458;-62
2021/05/10 21:46:36;;;;;;;1999.90;999.90;;;;;;;21.32;53.83;100347.28;15868501;28;20330;-62
2021/05/10 21:54:08;;;;;;;1999.90;999.90;;;;;;;21.23;54.12;100363.94;15867807;28;20032;-62
2021/05/10 22:01:40;;;;;;;1999.90;999.90;;;;;;;21.23;53.89;100380.16;15867634;28;20137;-62
2021/05/10 22:09:12;;;;;;;1999.90;999.90;;;;;;;21.26;53.00;100385.06;15867569;28;20055;-62
2021/05/10 22:16:44;;;;;;;1999.90;999.90;;;;;;;21.18;53.29;100387.09;15848885;28;20360;-62
2021/05/10 22:24:24;;;;;;;1999.90;999.90;;;;;;;20.78;54.49;100382.00;15867336;28;20043;-60
2021/05/10 22:31:56;;;;;;;1999.90;999.90;;;;;;;20.82;54.38;100368.59;15866029;28;20150;-62
2021/05/10 22:39:35;;;;;;;1999.90;999.90;;;;;;;20.75;55.31;100375.13;15865322;28;20491;-62
2021/05/10 23:03:11;;;;;;;1999.90;999.90;;;;;;;20.61;57.15;100367.47;15848326;28;20048;-63
2021/05/10 23:11:14;;;;;;;1999.90;999.90;;;;;;;20.49;58.13;100365.06;15865305;28;20069;-62
2021/05/10 23:18:47;;;;;;;;;;;;;;;20.49;58.68;100350.91;15861442;28;20054;-60
2021/05/10 23:26:21;;;;;;;1999.90;999.90;;;;;;;20.31;59.53;100350.09;15862020;28;19919;-61
2021/05/10 23:33:53;;;;;;;1999.90;999.90;;;;;;;20.32;59.30;100346.88;15845587;28;20055;-60
2021/05/10 23:41:25;;;;;;;1999.90;999.90;;;;;;;20.12;59.79;100340.03;15862548;28;20047;-59
2021/05/10 23:48:57;;;;;;;1999.90;999.90;;;;;;;20.16;59.61;100329.50;15862718;28;20122;-61
2021/05/10 23:56:29;;;;;;;1999.90;999.90;;;;;;;20.21;58.94;100316.94;15860445;28;20145;-60
